createdAt,value
2019-03-25T00:00:06.193Z,5.84
2019-03-25T00:01:06.184Z,5.87
2019-03-25T00:02:06.168Z,5.86
2019-03-25T00:03:06.155Z,5.83
2019-03-25T00:04:06.144Z,5.84
2019-03-25T00:05:06.131Z,5.76
2019-03-25T00:06:06.118Z,5.75
2019-03-25T00:07:06.106Z,5.73
2019-03-25T00:08:06.095Z,5.72
2019-03-25T00:09:06.080Z,5.66
2019-03-25T00:10:06.068Z,5.57
2019-03-25T00:11:06.056Z,5.65
2019-03-25T00:12:06.044Z,5.57
2019-03-25T00:13:06.030Z,5.57
2019-03-25T00:14:06.020Z,5.59
2019-03-25T00:15:06.006Z,5.57
2019-03-25T00:16:05.996Z,5.53
2019-03-25T00:17:06.033Z,5.51
2019-03-25T00:18:05.967Z,5.47
2019-03-25T00:19:05.955Z,5.44
2019-03-25T00:20:05.945Z,5.39
2019-03-25T00:21:05.928Z,5.33
2019-03-25T00:22:05.915Z,5.39
2019-03-25T00:23:05.903Z,5.44
2019-03-25T00:24:05.891Z,5.41
2019-03-25T00:25:05.880Z,5.38
2019-03-25T00:26:05.864Z,5.44
2019-03-25T00:27:05.853Z,5.39
2019-03-25T00:28:05.842Z,5.23
2019-03-25T00:29:05.826Z,5.35
2019-03-25T00:30:05.812Z,5.25
2019-03-25T00:31:05.800Z,5.35
2019-03-25T00:32:05.787Z,5.35
2019-03-25T00:33:05.777Z,5.33
2019-03-25T00:34:05.760Z,5.33
2019-03-25T00:35:05.747Z,5.33
2019-03-25T00:36:05.734Z,5.35
2019-03-25T00:37:05.721Z,5.36
2019-03-25T00:38:05.708Z,5.46
2019-03-25T00:39:05.695Z,5.43
2019-03-25T00:40:05.684Z,5.43
2019-03-25T00:41:05.671Z,5.59
2019-03-25T00:42:05.656Z,5.57
2019-03-25T00:43:05.643Z,5.46
2019-03-25T00:44:05.631Z,5.41
2019-03-25T00:45:05.617Z,5.43
2019-03-25T00:46:05.604Z,5.46
2019-03-25T00:47:05.642Z,5.35
2019-03-25T00:48:05.581Z,5.33
2019-03-25T00:49:05.566Z,5.44
2019-03-25T00:50:05.553Z,5.23
2019-03-25T00:51:05.546Z,5.33
2019-03-25T00:52:05.528Z,5.30
2019-03-25T00:53:05.514Z,5.26
2019-03-25T00:54:05.501Z,5.26
2019-03-25T00:55:05.491Z,5.25
2019-03-25T00:56:05.476Z,5.23
2019-03-25T00:57:05.461Z,5.18
2019-03-25T00:58:05.450Z,5.12
2019-03-25T00:59:05.436Z,5.10
2019-03-25T01:00:05.423Z,5.15
2019-03-25T01:01:05.410Z,5.11
2019-03-25T01:02:05.398Z,5.11
2019-03-25T01:03:05.383Z,5.12
2019-03-25T01:04:05.370Z,5.08
2019-03-25T01:05:05.356Z,5.07
2019-03-25T01:06:05.349Z,5.10
2019-03-25T01:07:05.332Z,5.08
2019-03-25T01:08:05.318Z,5.12
2019-03-25T01:09:05.302Z,5.11
2019-03-25T01:10:05.289Z,5.10
2019-03-25T01:11:05.277Z,5.18
2019-03-25T01:12:05.263Z,5.20
2019-03-25T01:13:05.249Z,5.20
2019-03-25T01:14:05.237Z,5.23
2019-03-25T01:15:05.224Z,5.28
2019-03-25T01:16:05.211Z,5.28
2019-03-25T01:17:05.198Z,5.30
2019-03-25T01:18:16.136Z,5.28
2019-03-25T01:19:05.171Z,5.28
2019-03-25T01:20:05.157Z,5.29
2019-03-25T01:21:05.146Z,5.23
2019-03-25T01:22:05.131Z,5.25
2019-03-25T01:23:05.118Z,5.20
2019-03-25T01:24:05.105Z,5.26
2019-03-25T01:25:05.100Z,5.17
2019-03-25T01:26:05.083Z,5.17
2019-03-25T01:27:05.065Z,5.11
2019-03-25T01:28:05.052Z,5.08
2019-03-25T01:29:05.040Z,5.10
2019-03-25T01:30:05.025Z,5.08
2019-03-25T01:31:05.012Z,5.02
2019-03-25T01:32:04.999Z,5.05
2019-03-25T01:33:04.985Z,4.99
2019-03-25T01:34:04.973Z,4.97
2019-03-25T01:35:04.960Z,4.97
2019-03-25T01:36:04.946Z,5.00
2019-03-25T01:37:04.931Z,4.97
2019-03-25T01:38:04.918Z,5.07
2019-03-25T01:39:04.907Z,5.10
2019-03-25T01:40:04.892Z,5.11
2019-03-25T01:41:04.877Z,5.07
2019-03-25T01:42:04.868Z,5.12
2019-03-25T01:43:04.852Z,5.11
2019-03-25T01:44:04.839Z,5.26
2019-03-25T01:45:04.825Z,5.28
2019-03-25T01:46:04.812Z,5.29
2019-03-25T01:47:04.798Z,5.41
2019-03-25T01:48:04.785Z,5.43
2019-03-25T01:49:04.771Z,5.36
2019-03-25T01:50:04.758Z,5.38
2019-03-25T01:51:04.745Z,5.43
2019-03-25T01:52:04.732Z,5.47
2019-03-25T01:53:04.719Z,5.44
2019-03-25T01:54:04.706Z,5.39
2019-03-25T01:55:13.021Z,5.43
2019-03-25T01:56:04.680Z,5.41
2019-03-25T01:57:04.666Z,5.51
2019-03-25T01:58:04.657Z,5.56
2019-03-25T01:59:04.642Z,5.48
2019-03-25T02:00:04.628Z,5.56
2019-03-25T02:01:04.614Z,5.59
2019-03-25T02:02:04.601Z,5.48
2019-03-25T02:03:04.589Z,5.59
2019-03-25T02:04:04.576Z,5.53
2019-03-25T02:05:04.565Z,5.64
2019-03-25T02:06:04.549Z,5.66
2019-03-25T02:07:04.536Z,5.61
2019-03-25T02:08:04.524Z,5.59
2019-03-25T02:09:04.510Z,5.54
2019-03-25T02:10:04.498Z,5.57
2019-03-25T02:11:04.484Z,5.62
2019-03-25T02:12:04.472Z,5.66
2019-03-25T02:13:04.458Z,5.71
2019-03-25T02:14:04.447Z,5.72
2019-03-25T02:15:04.433Z,5.76
2019-03-25T02:16:04.421Z,5.71
2019-03-25T02:17:04.407Z,5.76
2019-03-25T02:18:04.401Z,5.75
2019-03-25T02:19:04.381Z,5.80
2019-03-25T02:20:04.373Z,5.83
2019-03-25T02:21:04.355Z,5.76
2019-03-25T02:22:04.347Z,5.82
2019-03-25T02:23:04.646Z,5.86
2019-03-25T02:24:04.319Z,5.87
2019-03-25T02:25:04.304Z,5.84
2019-03-25T02:26:04.292Z,5.76
2019-03-25T02:27:04.279Z,5.75
2019-03-25T02:28:04.274Z,5.75
2019-03-25T02:29:04.253Z,5.75
2019-03-25T02:30:04.246Z,5.79
2019-03-25T02:31:04.230Z,5.76
2019-03-25T02:32:04.229Z,5.76
2019-03-25T02:33:04.205Z,5.82
2019-03-25T02:34:04.233Z,5.79
2019-03-25T02:35:04.183Z,5.79
2019-03-25T02:36:04.165Z,5.83
2019-03-25T02:37:04.154Z,5.84
2019-03-25T02:38:04.144Z,5.83
2019-03-25T02:39:04.128Z,5.91
2019-03-25T02:40:04.129Z,5.91
2019-03-25T02:41:04.112Z,6.07
2019-03-25T02:42:04.098Z,6.12
2019-03-25T02:43:04.076Z,6.09
2019-03-25T02:44:04.067Z,6.11
2019-03-25T02:45:04.051Z,6.19
2019-03-25T02:46:04.046Z,6.19
2019-03-25T02:47:04.162Z,6.26
2019-03-25T02:48:04.032Z,6.36
2019-03-25T02:49:04.013Z,6.45
2019-03-25T02:50:03.990Z,6.56
2019-03-25T02:51:03.980Z,6.54
2019-03-25T02:52:03.962Z,6.48
2019-03-25T02:53:03.962Z,6.59
2019-03-25T02:54:03.938Z,6.59
2019-03-25T02:55:03.927Z,6.63
2019-03-25T02:56:03.922Z,6.64
2019-03-25T02:57:03.903Z,6.70
2019-03-25T02:58:03.900Z,6.67
2019-03-25T02:59:03.881Z,6.72
2019-03-25T03:00:03.872Z,6.67
2019-03-25T03:01:03.896Z,6.75
2019-03-25T03:02:03.902Z,6.75
2019-03-25T03:03:03.832Z,6.63
2019-03-25T03:04:03.818Z,6.77
2019-03-25T03:05:03.800Z,6.57
2019-03-25T03:06:03.785Z,6.69
2019-03-25T03:07:03.772Z,6.66
2019-03-25T03:08:03.761Z,6.74
2019-03-25T03:09:03.771Z,6.63
2019-03-25T03:10:03.737Z,6.49
2019-03-25T03:11:03.735Z,6.52
2019-03-25T03:12:03.712Z,6.46
2019-03-25T03:13:03.707Z,6.48
2019-03-25T03:14:03.696Z,6.42
2019-03-25T03:15:03.673Z,6.39
2019-03-25T03:16:03.768Z,6.39
2019-03-25T03:17:03.656Z,6.42
2019-03-25T03:18:03.761Z,6.45
2019-03-25T03:19:03.631Z,6.39
2019-03-25T03:20:03.621Z,6.38
2019-03-25T03:21:03.599Z,6.39
2019-03-25T03:22:03.581Z,6.39
2019-03-25T03:23:03.578Z,6.60
2019-03-25T03:24:03.566Z,6.63
2019-03-25T03:25:03.545Z,6.63
2019-03-25T03:26:03.570Z,6.59
2019-03-25T03:27:03.525Z,6.51
2019-03-25T03:28:03.506Z,6.46
2019-03-25T03:29:03.521Z,6.42
2019-03-25T03:30:03.482Z,6.38
2019-03-25T03:31:03.468Z,6.45
2019-03-25T03:32:03.456Z,6.42
2019-03-25T03:33:03.458Z,6.44
2019-03-25T03:34:03.501Z,6.48
2019-03-25T03:35:03.416Z,6.41
2019-03-25T03:36:03.419Z,6.44
2019-03-25T03:37:03.390Z,6.56
2019-03-25T03:38:03.377Z,6.56
2019-03-25T03:39:03.366Z,6.49
2019-03-25T03:40:03.353Z,6.44
2019-03-25T03:41:03.344Z,6.46
2019-03-25T03:42:03.357Z,6.42
2019-03-25T03:43:03.315Z,6.51
2019-03-25T03:44:03.316Z,6.42
2019-03-25T03:45:03.289Z,6.44
2019-03-25T03:46:03.276Z,6.39
2019-03-25T03:47:03.264Z,6.38
2019-03-25T03:48:03.253Z,6.42
2019-03-25T03:49:03.242Z,6.36
2019-03-25T03:50:03.233Z,6.28
2019-03-25T03:51:03.214Z,6.31
2019-03-25T03:52:03.205Z,6.17
2019-03-25T03:53:03.195Z,6.16
2019-03-25T03:54:03.177Z,6.20
2019-03-25T03:55:03.165Z,6.17
2019-03-25T03:56:12.859Z,6.20
2019-03-25T03:57:03.138Z,6.12
2019-03-25T03:58:03.127Z,6.09
2019-03-25T03:59:03.112Z,6.14
2019-03-25T04:00:03.099Z,6.12
2019-03-25T04:01:03.104Z,6.16
2019-03-25T04:02:03.076Z,6.16
2019-03-25T04:03:03.062Z,6.19
2019-03-25T04:04:03.058Z,6.12
2019-03-25T04:05:03.045Z,6.12
2019-03-25T04:06:03.023Z,6.07
2019-03-25T04:07:03.005Z,6.08
2019-03-25T04:08:02.995Z,6.11
2019-03-25T04:09:02.979Z,6.14
2019-03-25T04:10:02.969Z,6.16
2019-03-25T04:11:02.953Z,6.14
2019-03-25T04:12:02.942Z,6.19
2019-03-25T04:13:02.930Z,6.17
2019-03-25T04:14:02.915Z,6.09
2019-03-25T04:15:02.901Z,6.09
2019-03-25T04:16:02.890Z,6.17
2019-03-25T04:17:02.874Z,6.11
2019-03-25T04:18:02.863Z,6.16
2019-03-25T04:19:02.856Z,6.14
2019-03-25T04:20:02.889Z,6.08
2019-03-25T04:21:02.825Z,6.14
2019-03-25T04:22:02.810Z,6.11
2019-03-25T04:23:02.796Z,6.09
2019-03-25T04:24:02.785Z,6.14
2019-03-25T04:25:02.779Z,6.12
2019-03-25T04:26:02.757Z,6.11
2019-03-25T04:27:02.770Z,6.16
2019-03-25T04:28:02.732Z,6.12
2019-03-25T04:29:02.726Z,6.09
2019-03-25T04:30:02.705Z,6.14
2019-03-25T04:31:02.694Z,6.14
2019-03-25T04:32:06.079Z,6.19
2019-03-25T04:33:02.671Z,6.17
2019-03-25T04:34:02.653Z,6.07
2019-03-25T04:35:02.639Z,6.22
2019-03-25T04:36:02.628Z,6.22
2019-03-25T04:37:02.615Z,6.12
2019-03-25T04:38:02.602Z,6.14
2019-03-25T04:39:02.591Z,6.09
2019-03-25T04:40:02.575Z,6.09
2019-03-25T04:41:02.573Z,6.12
2019-03-25T04:42:02.556Z,6.16
2019-03-25T04:43:02.640Z,6.12
2019-03-25T04:44:02.524Z,6.12
2019-03-25T04:45:02.508Z,6.11
2019-03-25T04:46:02.496Z,6.11
2019-03-25T04:47:02.487Z,6.11
2019-03-25T04:48:02.470Z,6.11
2019-03-25T04:49:02.456Z,6.09
2019-03-25T04:50:02.445Z,6.12
2019-03-25T04:51:02.431Z,6.12
2019-03-25T04:52:02.418Z,6.12
2019-03-25T04:53:02.403Z,6.22
2019-03-25T04:54:02.391Z,6.24
2019-03-25T04:55:02.381Z,6.31
2019-03-25T04:56:02.417Z,6.28
2019-03-25T04:57:02.351Z,6.28
2019-03-25T04:58:02.339Z,6.33
2019-03-25T04:59:02.326Z,6.33
2019-03-25T05:00:02.313Z,6.38
2019-03-25T05:01:02.300Z,6.28
2019-03-25T05:02:02.288Z,6.28
2019-03-25T05:03:02.277Z,6.38
2019-03-25T05:04:02.270Z,6.22
2019-03-25T05:05:02.248Z,6.30
2019-03-25T05:06:02.234Z,6.26
2019-03-25T05:07:02.222Z,6.17
2019-03-25T05:08:02.212Z,6.16
2019-03-25T05:09:02.195Z,6.14
2019-03-25T05:10:02.187Z,6.16
2019-03-25T05:11:03.821Z,6.17
2019-03-25T05:12:02.157Z,6.14
2019-03-25T05:13:02.142Z,6.24
2019-03-25T05:14:02.130Z,6.20
2019-03-25T05:15:02.117Z,6.24
2019-03-25T05:16:02.105Z,6.16
2019-03-25T05:17:02.090Z,6.14
2019-03-25T05:18:02.089Z,6.09
2019-03-25T05:19:02.066Z,5.94
2019-03-25T05:20:02.051Z,5.93
2019-03-25T05:21:02.087Z,5.93
2019-03-25T05:22:02.034Z,5.94
2019-03-25T05:23:02.011Z,5.91
2019-03-25T05:24:01.998Z,5.84
2019-03-25T05:25:01.989Z,5.91
2019-03-25T05:26:01.972Z,5.84
2019-03-25T05:27:01.961Z,5.87
2019-03-25T05:28:01.945Z,5.82
2019-03-25T05:29:01.933Z,5.80
2019-03-25T05:30:01.931Z,5.86
2019-03-25T05:31:01.905Z,5.87
2019-03-25T05:32:01.892Z,5.73
2019-03-25T05:33:01.877Z,5.72
2019-03-25T05:34:01.866Z,5.62
2019-03-25T05:35:01.864Z,5.72
2019-03-25T05:36:01.838Z,5.64
2019-03-25T05:37:01.827Z,5.65
2019-03-25T05:38:01.810Z,5.65
2019-03-25T05:39:01.819Z,5.62
2019-03-25T05:40:01.786Z,5.62
2019-03-25T05:41:01.770Z,5.57
2019-03-25T05:42:01.757Z,5.68
2019-03-25T05:43:01.745Z,5.66
2019-03-25T05:44:01.731Z,5.56
2019-03-25T05:45:01.717Z,5.61
2019-03-25T05:46:01.706Z,5.57
2019-03-25T05:47:01.690Z,5.59
2019-03-25T05:48:01.677Z,5.54
2019-03-25T05:49:01.662Z,5.62
2019-03-25T05:50:01.673Z,5.59
2019-03-25T05:51:01.642Z,5.59
2019-03-25T05:52:01.626Z,5.56
2019-03-25T05:53:01.611Z,5.50
2019-03-25T05:54:01.595Z,5.62
2019-03-25T05:55:01.585Z,5.48
2019-03-25T05:56:01.570Z,5.46
2019-03-25T05:57:02.619Z,5.50
2019-03-25T05:58:01.543Z,5.46
2019-03-25T05:59:01.532Z,5.47
2019-03-25T06:00:01.516Z,5.47
2019-03-25T06:01:01.501Z,5.51
2019-03-25T06:02:01.488Z,5.56
2019-03-25T06:03:01.476Z,5.53
2019-03-25T06:04:01.462Z,5.54
2019-03-25T06:05:01.683Z,5.46
2019-03-25T06:06:01.440Z,5.54
2019-03-25T06:07:01.425Z,5.51
2019-03-25T06:08:01.411Z,5.51
2019-03-25T06:09:01.395Z,5.35
2019-03-25T06:10:01.382Z,5.43
2019-03-25T06:11:01.368Z,5.43
2019-03-25T06:12:01.356Z,5.41
2019-03-25T06:13:01.343Z,5.39
2019-03-25T06:14:01.336Z,5.50
2019-03-25T06:15:01.323Z,5.46
2019-03-25T06:16:01.303Z,5.51
2019-03-25T06:17:01.291Z,5.47
2019-03-25T06:18:01.274Z,5.47
2019-03-25T06:19:01.263Z,5.48
2019-03-25T06:20:01.248Z,5.51
2019-03-25T06:21:01.234Z,5.57
2019-03-25T06:22:01.222Z,5.56
2019-03-25T06:23:01.208Z,5.65
2019-03-25T06:24:01.196Z,5.56
2019-03-25T06:25:01.983Z,5.59
2019-03-25T06:26:01.178Z,5.62
2019-03-25T06:27:01.155Z,5.61
2019-03-25T06:28:01.169Z,5.65
2019-03-25T06:29:01.928Z,5.65
2019-03-25T06:30:01.116Z,5.64
2019-03-25T06:31:01.103Z,5.66
2019-03-25T06:32:01.089Z,5.71
2019-03-25T06:33:12.023Z,5.73
2019-03-25T06:34:01.062Z,5.76
2019-03-25T06:35:01.055Z,5.80
2019-03-25T06:36:01.036Z,5.83
2019-03-25T06:37:01.023Z,5.89
2019-03-25T06:38:01.010Z,5.93
2019-03-25T06:39:00.997Z,5.99
2019-03-25T06:40:00.982Z,5.91
2019-03-25T06:41:00.972Z,6.04
2019-03-25T06:42:00.956Z,6.08
2019-03-25T06:43:00.946Z,6.05
2019-03-25T06:44:01.181Z,5.97
2019-03-25T06:45:00.917Z,5.94
2019-03-25T06:46:00.907Z,5.97
2019-03-25T06:47:00.897Z,6.01
2019-03-25T06:48:00.892Z,6.04
2019-03-25T06:49:00.877Z,6.01
2019-03-25T06:50:00.861Z,6.09
2019-03-25T06:51:00.851Z,6.12
2019-03-25T06:52:00.840Z,6.14
2019-03-25T06:53:00.814Z,6.27
2019-03-25T06:54:00.801Z,6.19
2019-03-25T06:55:00.791Z,6.31
2019-03-25T06:56:00.776Z,6.38
2019-03-25T06:57:00.763Z,6.44
2019-03-25T06:58:00.750Z,6.48
2019-03-25T06:59:00.738Z,6.52
2019-03-25T07:00:00.749Z,6.48
2019-03-25T07:01:00.718Z,6.66
2019-03-25T07:02:00.699Z,6.69
2019-03-25T07:03:00.687Z,6.69
2019-03-25T07:04:00.678Z,6.70
2019-03-25T07:05:00.661Z,6.67
2019-03-25T07:06:00.650Z,6.78
2019-03-25T07:07:00.639Z,6.82
2019-03-25T07:08:00.625Z,6.95
2019-03-25T07:09:00.612Z,7.02
2019-03-25T07:10:00.606Z,7.03
2019-03-25T07:11:00.592Z,6.87
2019-03-25T07:12:00.576Z,6.78
2019-03-25T07:13:00.565Z,6.79
2019-03-25T07:14:00.556Z,6.79
2019-03-25T07:15:00.539Z,7.00
2019-03-25T07:16:00.528Z,7.00
2019-03-25T07:17:00.515Z,7.03
2019-03-25T07:18:00.502Z,7.06
2019-03-25T07:19:00.490Z,7.00
2019-03-25T07:20:00.481Z,7.11
2019-03-25T07:21:00.467Z,7.24
2019-03-25T07:22:00.454Z,7.38
2019-03-25T07:23:00.443Z,7.17
2019-03-25T07:24:00.434Z,7.23
2019-03-25T07:25:00.418Z,7.24
2019-03-25T07:26:00.407Z,7.32
2019-03-25T07:27:00.400Z,7.31
2019-03-25T07:28:00.384Z,7.45
2019-03-25T07:29:00.372Z,7.50
2019-03-25T07:30:00.379Z,7.56
2019-03-25T07:31:00.350Z,7.61
2019-03-25T07:32:00.339Z,7.70
2019-03-25T07:33:00.374Z,7.72
2019-03-25T07:34:00.316Z,7.85
2019-03-25T07:35:00.327Z,7.87
2019-03-25T07:36:00.296Z,7.57
2019-03-25T07:37:01.938Z,7.54
2019-03-25T07:38:00.292Z,7.67
2019-03-25T07:39:00.361Z,7.88
2019-03-25T07:40:00.337Z,8.05
2019-03-25T07:41:00.242Z,8.03
2019-03-25T07:42:00.284Z,7.85
2019-03-25T07:43:00.327Z,7.77
2019-03-25T07:44:00.265Z,7.56
2019-03-25T07:45:00.339Z,7.40
2019-03-25T07:46:00.242Z,7.40
2019-03-25T07:47:00.232Z,7.36
2019-03-25T07:48:00.172Z,7.32
2019-03-25T07:49:00.209Z,7.31
2019-03-25T07:50:00.320Z,7.28
2019-03-25T07:51:00.192Z,7.35
2019-03-25T07:52:00.181Z,7.31
2019-03-25T07:53:00.269Z,7.18
2019-03-25T07:54:01.807Z,7.24
2019-03-25T07:55:00.269Z,7.24
2019-03-25T07:56:00.086Z,7.32
2019-03-25T07:57:00.071Z,7.32
2019-03-25T07:58:00.087Z,7.25
2019-03-25T07:59:00.080Z,7.33
2019-03-25T08:00:00.040Z,7.29
2019-03-25T08:01:00.026Z,7.20
2019-03-25T08:02:00.035Z,7.18
2019-03-25T08:03:00.012Z,7.20
2019-03-25T08:04:00.034Z,7.23
2019-03-25T08:05:00.001Z,7.21
2019-03-25T08:05:59.968Z,7.07
2019-03-25T08:06:59.970Z,6.96
2019-03-25T08:07:59.956Z,6.96
2019-03-25T08:09:03.976Z,7.05
2019-03-25T08:09:59.947Z,7.25
2019-03-25T08:10:59.939Z,7.18
2019-03-25T08:11:59.916Z,7.25
2019-03-25T08:12:59.929Z,7.24
2019-03-25T08:13:59.874Z,7.14
2019-03-25T08:14:59.891Z,7.06
2019-03-25T08:15:59.853Z,7.03
2019-03-25T08:16:59.839Z,6.82
2019-03-25T08:17:59.829Z,6.64
2019-03-25T08:18:59.816Z,6.72
2019-03-25T08:19:59.805Z,6.74
2019-03-25T08:20:59.796Z,6.67
2019-03-25T08:21:59.789Z,6.52
2019-03-25T08:22:59.766Z,6.39
2019-03-25T08:23:59.754Z,6.38
2019-03-25T08:24:59.741Z,6.44
2019-03-25T08:25:59.729Z,6.28
2019-03-25T08:26:59.717Z,6.28
2019-03-25T08:28:00.583Z,6.44
2019-03-25T08:28:59.692Z,6.62
2019-03-25T08:29:59.680Z,7.00
2019-03-25T08:30:59.668Z,7.18
2019-03-25T08:31:59.660Z,7.38
2019-03-25T08:32:59.646Z,7.45
2019-03-25T08:33:59.636Z,7.72
2019-03-25T08:34:59.627Z,8.00
2019-03-25T08:35:59.618Z,8.18
2019-03-25T08:36:59.608Z,8.31
2019-03-25T08:37:59.599Z,8.45
2019-03-25T08:38:59.592Z,8.60
2019-03-25T08:39:59.584Z,8.76
2019-03-25T08:40:59.577Z,8.81
2019-03-25T08:41:59.569Z,8.87
2019-03-25T08:42:59.562Z,9.04
2019-03-25T08:43:59.601Z,8.97
2019-03-25T08:44:59.550Z,8.91
2019-03-25T08:45:59.543Z,8.76
2019-03-25T08:46:59.537Z,8.91
2019-03-25T08:47:59.532Z,9.22
2019-03-25T08:48:59.525Z,9.54
2019-03-25T08:49:59.520Z,9.58
2019-03-25T08:50:59.519Z,9.47
2019-03-25T08:51:59.510Z,9.13
2019-03-25T08:52:59.507Z,9.25
2019-03-25T08:53:59.499Z,9.37
2019-03-25T08:54:59.495Z,9.69
2019-03-25T08:55:59.490Z,9.66
2019-03-25T08:56:59.492Z,9.65
2019-03-25T08:58:11.202Z,9.41
2019-03-25T08:58:59.475Z,9.29
2019-03-25T08:59:59.471Z,9.11
2019-03-25T09:00:59.462Z,9.08
2019-03-25T09:01:59.457Z,8.91
2019-03-25T09:02:59.454Z,8.91
2019-03-25T09:03:59.448Z,8.81
2019-03-25T09:04:59.435Z,8.69
2019-03-25T09:05:59.663Z,8.64
2019-03-25T09:06:59.420Z,8.52
2019-03-25T09:07:59.412Z,8.74
2019-03-25T09:08:59.403Z,9.03
2019-03-25T09:09:59.396Z,8.95
2019-03-25T09:10:59.388Z,8.89
2019-03-25T09:11:59.383Z,9.04
2019-03-25T09:12:59.373Z,9.06
2019-03-25T09:13:59.363Z,9.02
2019-03-25T09:14:59.356Z,9.03
2019-03-25T09:15:59.348Z,8.76
2019-03-25T09:17:00.607Z,8.94
2019-03-25T09:17:59.330Z,9.00
2019-03-25T09:18:59.321Z,9.25
2019-03-25T09:19:59.315Z,9.22
2019-03-25T09:20:59.305Z,9.21
2019-03-25T09:21:59.297Z,8.94
2019-03-25T09:22:59.289Z,8.95
2019-03-25T09:23:59.278Z,9.04
2019-03-25T09:24:59.268Z,9.11
2019-03-25T09:25:59.260Z,9.10
2019-03-25T09:26:59.253Z,9.29
2019-03-25T09:27:59.245Z,9.34
2019-03-25T09:28:59.236Z,9.22
2019-03-25T09:29:59.227Z,9.03
2019-03-25T09:30:59.215Z,9.03
2019-03-25T09:31:59.205Z,9.11
2019-03-25T09:32:59.197Z,9.19
2019-03-25T09:33:59.196Z,9.19
2019-03-25T09:34:59.177Z,9.25
2019-03-25T09:35:59.261Z,9.22
2019-03-25T09:36:59.159Z,9.08
2019-03-25T09:37:59.149Z,8.89
2019-03-25T09:38:59.139Z,8.60
2019-03-25T09:39:59.130Z,8.06
2019-03-25T09:40:59.119Z,7.80
2019-03-25T09:41:59.109Z,7.58
2019-03-25T09:42:59.099Z,7.39
2019-03-25T09:43:59.088Z,7.28
2019-03-25T09:44:59.077Z,7.18
2019-03-25T09:45:59.070Z,7.11
2019-03-25T09:46:59.057Z,7.07
2019-03-25T09:47:59.044Z,6.85
2019-03-25T09:48:59.032Z,6.70
2019-03-25T09:49:59.023Z,6.48
2019-03-25T09:50:59.009Z,6.08
2019-03-25T09:51:58.999Z,5.99
2019-03-25T09:52:58.985Z,5.83
2019-03-25T09:53:58.973Z,5.72
2019-03-25T09:54:58.962Z,5.73
2019-03-25T09:55:58.953Z,5.90
2019-03-25T09:56:58.937Z,6.17
2019-03-25T09:57:58.925Z,6.41
2019-03-25T09:58:58.914Z,6.70
2019-03-25T09:59:58.903Z,6.84
2019-03-25T10:00:58.892Z,7.21
2019-03-25T10:01:58.881Z,7.56
2019-03-25T10:02:58.873Z,7.77
2019-03-25T10:03:58.863Z,7.97
2019-03-25T10:04:58.854Z,8.23
2019-03-25T10:05:58.847Z,8.19
2019-03-25T10:06:58.839Z,8.33
2019-03-25T10:07:58.832Z,8.41
2019-03-25T10:08:58.825Z,8.64
2019-03-25T10:09:58.874Z,8.63
2019-03-25T10:10:58.814Z,8.78
2019-03-25T10:11:58.809Z,8.87
2019-03-25T10:12:58.805Z,9.03
2019-03-25T10:13:58.798Z,9.44
2019-03-25T10:14:58.794Z,9.72
2019-03-25T10:15:58.791Z,9.69
2019-03-25T10:16:58.792Z,9.84
2019-03-25T10:17:58.783Z,9.51
2019-03-25T10:18:58.780Z,9.40
2019-03-25T10:19:58.777Z,9.54
2019-03-25T10:20:58.776Z,9.56
2019-03-25T10:21:58.770Z,9.80
2019-03-25T10:22:58.769Z,9.82
2019-03-25T10:23:58.807Z,9.87
2019-03-25T10:24:58.760Z,9.95
2019-03-25T10:25:58.757Z,10.09
2019-03-25T10:26:58.755Z,9.95
2019-03-25T10:27:58.769Z,10.12
2019-03-25T10:28:58.749Z,10.07
2019-03-25T10:29:58.747Z,9.91
2019-03-25T10:30:58.743Z,9.59
2019-03-25T10:31:58.740Z,9.08
2019-03-25T10:32:58.733Z,8.97
2019-03-25T10:33:58.731Z,8.81
2019-03-25T10:34:58.722Z,8.79
2019-03-25T10:35:58.716Z,8.81
2019-03-25T10:36:58.709Z,8.81
2019-03-25T10:37:58.702Z,8.79
2019-03-25T10:38:58.695Z,9.06
2019-03-25T10:39:58.690Z,9.21
2019-03-25T10:40:58.681Z,9.08
2019-03-25T10:41:58.674Z,8.97
2019-03-25T10:42:58.667Z,8.97
2019-03-25T10:43:58.659Z,9.23
2019-03-25T10:44:58.651Z,9.65
2019-03-25T10:45:58.645Z,10.07
2019-03-25T10:46:58.639Z,10.12
2019-03-25T10:47:58.635Z,10.01
2019-03-25T10:48:58.630Z,9.95
2019-03-25T10:49:58.622Z,9.69
2019-03-25T10:50:58.665Z,9.82
2019-03-25T10:51:58.612Z,10.04
2019-03-25T10:52:58.603Z,10.67
2019-03-25T10:53:58.597Z,10.67
2019-03-25T10:55:58.589Z,11.15
2019-03-25T10:56:58.584Z,11.14
2019-03-25T10:57:58.578Z,10.93
2019-03-25T10:58:58.670Z,10.71
2019-03-25T10:59:58.579Z,10.30
2019-03-25T11:00:58.564Z,10.02
2019-03-25T11:01:58.558Z,9.94
2019-03-25T11:02:58.552Z,9.84
2019-03-25T11:03:58.546Z,9.62
2019-03-25T11:04:58.541Z,9.73
2019-03-25T11:05:58.534Z,9.83
2019-03-25T11:06:58.526Z,10.34
2019-03-25T11:07:58.523Z,10.17
2019-03-25T11:08:58.512Z,10.37
2019-03-25T11:09:58.531Z,10.69
2019-03-25T11:10:58.500Z,10.86
2019-03-25T11:11:58.495Z,10.86
2019-03-25T11:12:58.489Z,10.93
2019-03-25T11:13:58.484Z,11.17
2019-03-25T11:14:58.480Z,11.29
2019-03-25T11:15:58.476Z,11.62
2019-03-25T11:16:58.472Z,11.91
2019-03-25T11:17:58.469Z,12.04
2019-03-25T11:18:58.465Z,11.68
2019-03-25T11:19:58.463Z,11.51
2019-03-25T11:20:58.460Z,11.60
2019-03-25T11:21:58.455Z,11.86
2019-03-25T11:22:58.452Z,11.84
2019-03-25T11:23:58.449Z,11.65
2019-03-25T11:24:58.446Z,11.35
2019-03-25T11:25:58.443Z,11.45
2019-03-25T11:26:58.437Z,11.54
2019-03-25T11:27:58.433Z,11.62
2019-03-25T11:29:04.393Z,11.60
2019-03-25T11:29:58.421Z,11.04
2019-03-25T11:30:58.417Z,10.57
2019-03-25T11:31:58.413Z,10.17
2019-03-25T11:32:58.408Z,9.79
2019-03-25T11:33:58.398Z,9.55
2019-03-25T11:34:58.390Z,9.43
2019-03-25T11:35:58.384Z,9.26
2019-03-25T11:36:58.375Z,9.23
2019-03-25T11:37:58.378Z,9.18
2019-03-25T11:38:58.374Z,9.14
2019-03-25T11:39:58.351Z,9.23
2019-03-25T11:40:58.342Z,9.31
2019-03-25T11:41:58.333Z,9.40
2019-03-25T11:42:58.326Z,9.25
2019-03-25T11:43:58.319Z,9.37
2019-03-25T11:44:58.307Z,9.83
2019-03-25T11:45:58.299Z,10.30
2019-03-25T11:46:58.291Z,10.87
2019-03-25T11:47:58.284Z,10.78
2019-03-25T11:48:58.303Z,10.90
2019-03-25T11:49:58.269Z,10.90
2019-03-25T11:50:58.262Z,11.23
2019-03-25T11:51:58.259Z,11.57
2019-03-25T11:52:58.249Z,12.03
2019-03-25T11:53:58.734Z,12.32
2019-03-25T11:54:58.240Z,12.60
2019-03-25T11:55:58.234Z,12.55
2019-03-25T11:56:58.228Z,12.31
2019-03-25T11:57:58.223Z,12.25
2019-03-25T11:58:58.218Z,11.91
2019-03-25T11:59:58.213Z,11.60
2019-03-25T12:00:58.211Z,11.52
2019-03-25T12:01:58.200Z,11.36
2019-03-25T12:02:58.194Z,11.23
2019-03-25T12:03:58.187Z,10.99
2019-03-25T12:04:58.180Z,10.81
2019-03-25T12:05:58.194Z,10.64
2019-03-25T12:06:58.167Z,10.69
2019-03-25T12:07:58.159Z,10.74
2019-03-25T12:08:58.152Z,10.67
2019-03-25T12:09:58.145Z,10.84
2019-03-25T12:10:58.137Z,11.07
2019-03-25T12:11:58.129Z,11.17
2019-03-25T12:12:58.121Z,11.04
2019-03-25T12:13:58.114Z,11.08
2019-03-25T12:14:58.106Z,11.15
2019-03-25T12:15:58.103Z,11.27
2019-03-25T12:16:58.090Z,11.29
2019-03-25T12:17:58.084Z,11.04
2019-03-25T12:18:58.075Z,10.81
2019-03-25T12:19:58.067Z,10.68
2019-03-25T12:20:58.059Z,10.54
2019-03-25T12:21:58.058Z,10.57
2019-03-25T12:22:58.042Z,10.81
2019-03-25T12:23:58.036Z,10.92
2019-03-25T12:24:58.025Z,10.89
2019-03-25T12:25:58.017Z,11.00
2019-03-25T12:26:58.010Z,10.86
2019-03-25T12:27:58.002Z,10.68
2019-03-25T12:28:58.018Z,10.60
2019-03-25T12:29:57.984Z,10.59
2019-03-25T12:30:57.975Z,10.92
2019-03-25T12:31:57.968Z,11.04
2019-03-25T12:33:03.992Z,11.40
2019-03-25T12:33:57.950Z,11.97
2019-03-25T12:34:57.944Z,12.46
2019-03-25T12:35:57.935Z,12.42
2019-03-25T12:36:57.928Z,12.42
2019-03-25T12:37:57.921Z,12.55
2019-03-25T12:38:57.914Z,12.47
2019-03-25T12:39:57.908Z,12.32
2019-03-25T12:40:57.900Z,12.37
2019-03-25T12:41:57.894Z,12.68
2019-03-25T12:42:57.887Z,12.24
2019-03-25T12:43:57.881Z,12.04
2019-03-25T12:44:57.874Z,11.80
2019-03-25T12:45:57.869Z,11.12
2019-03-25T12:46:57.864Z,11.40
2019-03-25T12:47:57.863Z,11.57
2019-03-25T12:48:57.851Z,12.02
2019-03-25T12:49:57.841Z,12.02
2019-03-25T12:50:57.837Z,11.60
2019-03-25T12:51:57.829Z,11.90
2019-03-25T12:52:57.827Z,11.90
2019-03-25T12:53:57.815Z,12.12
2019-03-25T12:54:57.811Z,12.22
2019-03-25T12:55:57.812Z,12.68
2019-03-25T12:56:57.795Z,12.86
2019-03-25T12:57:57.789Z,12.87
2019-03-25T12:58:57.784Z,12.83
2019-03-25T12:59:57.778Z,12.97
2019-03-25T13:00:57.774Z,12.91
2019-03-25T13:01:57.765Z,13.09
2019-03-25T13:02:57.759Z,13.15
2019-03-25T13:03:57.754Z,13.12
2019-03-25T13:04:57.748Z,12.80
2019-03-25T13:05:57.742Z,12.13
2019-03-25T13:06:57.737Z,11.55
2019-03-25T13:07:57.731Z,11.26
2019-03-25T13:09:00.066Z,10.86
2019-03-25T13:09:57.717Z,10.61
2019-03-25T13:10:57.709Z,10.57
2019-03-25T13:11:57.702Z,10.31
2019-03-25T13:12:57.694Z,10.22
2019-03-25T13:13:57.687Z,10.09
2019-03-25T13:14:57.680Z,10.01